createdAt,value
2019-04-03T00:00:34.503Z,23.3124
2019-04-03T00:01:38.203Z,23.3391
2019-04-03T00:02:41.190Z,23.3551
2019-04-03T00:03:44.198Z,23.3684
2019-04-03T00:04:47.189Z,23.3257
2019-04-03T00:05:50.201Z,23.3391
2019-04-03T00:06:53.182Z,23.4245
2019-04-03T00:07:56.183Z,23.3391
2019-04-03T00:08:59.192Z,23.2269
2019-04-03T00:10:02.198Z,23.2563
2019-04-03T00:11:05.194Z,23.3124
2019-04-03T00:12:10.075Z,23.3551
2019-04-03T00:13:13.198Z,23.2136
2019-04-03T00:14:16.186Z,23.3818
2019-04-03T00:15:19.186Z,23.3391
2019-04-03T00:16:22.194Z,23.3818
2019-04-03T00:17:25.196Z,23.3978
2019-04-03T00:18:28.301Z,23.3257
2019-04-03T00:19:31.214Z,23.2830
2019-04-03T00:20:34.185Z,23.3257
2019-04-03T00:21:37.189Z,23.3257
2019-04-03T00:22:40.217Z,23.3124
2019-04-03T00:23:43.198Z,23.2002
2019-04-03T00:24:46.185Z,23.2002
2019-04-03T00:25:52.017Z,23.2403
2019-04-03T00:26:55.203Z,23.3257
2019-04-03T00:27:58.184Z,23.3391
2019-04-03T00:29:01.186Z,23.2990
2019-04-03T00:30:04.193Z,23.2990
2019-04-03T00:31:07.231Z,23.2990
2019-04-03T00:32:10.183Z,23.2563
2019-04-03T00:33:13.191Z,23.3684
2019-04-03T00:34:16.201Z,23.2830
2019-04-03T00:35:19.183Z,23.2403
2019-04-03T00:36:23.310Z,23.3124
2019-04-03T00:37:26.198Z,23.3551
2019-04-03T00:38:29.206Z,23.2696
2019-04-03T00:39:32.185Z,23.2696
2019-04-03T00:40:35.211Z,23.2403
2019-04-03T00:41:38.190Z,23.1575
2019-04-03T00:42:41.198Z,23.1842
2019-04-03T00:43:44.201Z,23.1842
2019-04-03T00:44:47.301Z,23.2136
2019-04-03T00:45:50.185Z,23.1708
2019-04-03T00:46:53.862Z,23.2136
2019-04-03T00:47:58.188Z,23.2136
2019-04-03T00:49:01.203Z,23.2990
2019-04-03T00:50:04.200Z,23.2136
2019-04-03T00:51:07.201Z,23.1575
2019-04-03T00:52:10.208Z,23.1842
2019-04-03T00:53:13.193Z,23.1414
2019-04-03T00:54:16.182Z,23.2136
2019-04-03T00:55:19.189Z,23.2269
2019-04-03T00:56:22.207Z,23.1842
2019-04-03T00:57:26.340Z,23.1842
2019-04-03T00:58:30.183Z,23.2136
2019-04-03T00:59:33.187Z,23.2002
2019-04-03T01:00:36.183Z,23.1281
2019-04-03T01:01:39.186Z,23.1575
2019-04-03T01:02:42.187Z,23.1575
2019-04-03T01:03:45.185Z,23.1708
2019-04-03T01:04:48.197Z,23.2990
2019-04-03T01:05:51.188Z,23.2403
2019-04-03T01:06:54.203Z,23.1575
2019-04-03T01:07:59.256Z,23.2002
2019-04-03T01:09:02.202Z,23.2563
2019-04-03T01:10:05.208Z,23.2696
2019-04-03T01:11:08.204Z,23.2830
2019-04-03T01:12:11.191Z,23.1842
2019-04-03T01:13:14.200Z,23.1147
2019-04-03T01:14:17.186Z,23.1147
2019-04-03T01:15:20.205Z,23.1575
2019-04-03T01:16:23.187Z,23.1842
2019-04-03T01:17:26.184Z,23.1708
2019-04-03T01:18:29.188Z,23.1575
2019-04-03T01:19:32.193Z,23.2403
2019-04-03T01:20:36.224Z,23.1414
2019-04-03T01:21:39.184Z,23.1575
2019-04-03T01:22:42.195Z,23.1414
2019-04-03T01:23:45.194Z,23.1842
2019-04-03T01:24:48.208Z,23.1708
2019-04-03T01:25:51.362Z,23.2403
2019-04-03T01:26:54.201Z,23.1414
2019-04-03T01:27:57.209Z,23.2136
2019-04-03T01:29:00.200Z,23.1842
2019-04-03T01:30:03.196Z,23.2269
2019-04-03T01:31:06.203Z,23.2403
2019-04-03T01:32:09.189Z,23.2002
2019-04-03T01:33:12.236Z,23.1708
2019-04-03T01:34:17.182Z,23.1147
2019-04-03T01:35:20.187Z,23.2563
2019-04-03T01:36:23.180Z,23.2002
2019-04-03T01:37:26.191Z,23.1414
2019-04-03T01:38:29.194Z,23.1708
2019-04-03T01:39:32.283Z,23.1281
2019-04-03T01:40:35.195Z,23.1575
2019-04-03T01:41:38.191Z,23.1147
2019-04-03T01:42:41.210Z,23.0720
2019-04-03T01:43:44.188Z,23.1575
2019-04-03T01:44:47.380Z,23.1575
2019-04-03T01:45:50.304Z,23.1575
2019-04-03T01:46:53.396Z,23.1414
2019-04-03T01:47:58.164Z,23.1842
2019-04-03T01:49:01.193Z,23.2136
2019-04-03T01:50:04.190Z,23.1014
2019-04-03T01:51:07.193Z,23.0854
2019-04-03T01:52:10.417Z,23.1281
2019-04-03T01:53:13.282Z,23.0854
2019-04-03T01:54:16.189Z,23.1708
2019-04-03T01:55:19.190Z,23.1147
2019-04-03T01:56:22.205Z,23.1014
2019-04-03T01:57:25.197Z,23.1414
2019-04-03T01:58:28.274Z,23.1842
2019-04-03T01:59:31.202Z,23.1414
2019-04-03T02:00:34.186Z,23.0400
2019-04-03T02:01:38.865Z,23.0560
2019-04-03T02:02:42.210Z,23.0720
2019-04-03T02:03:45.199Z,22.9839
2019-04-03T02:04:48.207Z,23.1147
2019-04-03T02:05:58.181Z,23.1414
2019-04-03T02:07:01.185Z,23.0720
2019-04-03T02:08:04.183Z,23.1014
2019-04-03T02:09:07.195Z,23.1281
2019-04-03T02:10:10.178Z,23.1575
2019-04-03T02:11:25.725Z,23.0400
2019-04-03T02:12:28.210Z,23.1281
2019-04-03T02:13:31.314Z,23.0720
2019-04-03T02:14:34.320Z,23.0560
2019-04-03T02:15:37.249Z,23.1147
2019-04-03T02:16:40.186Z,23.1014
2019-04-03T02:17:43.344Z,23.0720
2019-04-03T02:18:46.303Z,23.0266
2019-04-03T02:19:49.211Z,23.0266
2019-04-03T02:20:52.194Z,23.0400
2019-04-03T02:21:56.492Z,23.0560
2019-04-03T02:23:01.203Z,23.1014
2019-04-03T02:24:04.204Z,23.0720
2019-04-03T02:25:07.255Z,23.0720
2019-04-03T02:26:10.200Z,23.0133
2019-04-03T02:27:13.187Z,23.1014
2019-04-03T02:28:16.182Z,23.1147
2019-04-03T02:29:19.314Z,22.9999
2019-04-03T02:30:22.187Z,23.0266
2019-04-03T02:31:25.203Z,22.9706
2019-04-03T02:32:28.234Z,22.9999
2019-04-03T02:33:31.657Z,23.0133
2019-04-03T02:34:35.616Z,23.0133
2019-04-03T02:35:40.430Z,22.9999
2019-04-03T02:36:45.427Z,22.9706
2019-04-03T02:37:49.685Z,23.0133
2019-04-03T02:38:53.766Z,23.0133
2019-04-03T02:40:00.124Z,23.0133
2019-04-03T02:41:04.200Z,23.0720
2019-04-03T02:42:09.445Z,22.9706
2019-04-03T02:43:14.030Z,23.0133
2019-04-03T02:44:19.793Z,23.0133
2019-04-03T02:45:24.383Z,23.0133
2019-04-03T02:46:29.043Z,22.9145
2019-04-03T02:47:33.570Z,22.9572
2019-04-03T02:48:38.333Z,22.9839
2019-04-03T02:49:42.673Z,22.9438
2019-04-03T02:50:47.596Z,22.9145
2019-04-03T02:51:52.967Z,22.9278
2019-04-03T02:52:58.025Z,22.9999
2019-04-03T02:54:02.533Z,23.0266
2019-04-03T02:55:07.634Z,22.9999
2019-04-03T02:56:12.665Z,22.9706
2019-04-03T02:57:17.387Z,22.9438
2019-04-03T02:58:22.678Z,23.0133
2019-04-03T02:59:26.907Z,22.9011
2019-04-03T03:00:33.144Z,22.9278
2019-04-03T03:01:38.304Z,22.8157
2019-04-03T03:02:45.387Z,22.9839
2019-04-03T03:03:49.510Z,22.9572
2019-04-03T03:04:54.608Z,22.9706
2019-04-03T03:06:00.586Z,22.9278
2019-04-03T03:07:05.225Z,22.9278
2019-04-03T03:08:09.168Z,22.9145
2019-04-03T03:09:13.545Z,22.9145
2019-04-03T03:10:19.458Z,22.9011
2019-04-03T03:11:24.528Z,22.9438
2019-04-03T03:12:27.709Z,22.9572
2019-04-03T03:13:33.646Z,22.9278
2019-04-03T03:14:39.578Z,22.9438
2019-04-03T03:15:44.312Z,22.8717
2019-04-03T03:16:50.369Z,22.9011
2019-04-03T03:17:55.416Z,22.8717
2019-04-03T03:19:00.797Z,22.9145
2019-04-03T03:20:07.045Z,22.9011
2019-04-03T03:21:13.142Z,22.9145
2019-04-03T03:22:17.993Z,22.8157
2019-04-03T03:23:23.409Z,22.8290
2019-04-03T03:24:29.596Z,22.8290
2019-04-03T03:25:33.665Z,22.8851
2019-04-03T03:26:37.816Z,22.8157
2019-04-03T03:27:42.562Z,22.8450
2019-04-03T03:28:46.853Z,22.8584
2019-04-03T03:29:50.198Z,22.8851
2019-04-03T03:30:59.523Z,22.8851
2019-04-03T03:32:12.609Z,22.8450
2019-04-03T03:33:27.907Z,22.8584
2019-04-03T03:34:43.803Z,22.8290
2019-04-03T03:35:34.675Z,22.9011
2019-04-03T03:36:38.258Z,22.8450
2019-04-03T03:37:41.187Z,22.8717
2019-04-03T03:38:44.379Z,22.8851
2019-04-03T03:39:47.210Z,22.8851
2019-04-03T03:40:50.223Z,22.8290
2019-04-03T03:41:55.995Z,22.8290
2019-04-03T03:43:03.755Z,22.7729
2019-04-03T03:44:10.601Z,22.8023
2019-04-03T03:45:18.416Z,22.8157
2019-04-03T03:46:26.486Z,22.8157
2019-04-03T03:47:32.384Z,22.7729
2019-04-03T03:48:42.118Z,22.8157
2019-04-03T03:49:49.609Z,22.7462
2019-04-03T03:50:55.621Z,22.8450
2019-04-03T03:52:03.392Z,22.7596
2019-04-03T03:53:11.441Z,22.8157
2019-04-03T03:54:18.384Z,22.8157
2019-04-03T03:55:24.277Z,22.7596
2019-04-03T03:56:30.900Z,22.8023
2019-04-03T03:57:37.971Z,22.8290
2019-04-03T03:58:44.703Z,22.7729
2019-04-03T03:59:51.388Z,22.8157
2019-04-03T04:00:58.003Z,22.7729
2019-04-03T04:02:05.262Z,22.7863
2019-04-03T04:03:11.104Z,22.7863
2019-04-03T04:04:15.420Z,22.7462
2019-04-03T04:05:21.297Z,22.7729
2019-04-03T04:06:28.273Z,22.7863
2019-04-03T04:07:36.238Z,22.7302
2019-04-03T04:08:44.260Z,22.7302
2019-04-03T04:09:50.579Z,22.7596
2019-04-03T04:10:58.090Z,22.7462
2019-04-03T04:12:06.059Z,22.6875
2019-04-03T04:13:13.320Z,22.7035
2019-04-03T04:14:20.790Z,22.7035
2019-04-03T04:15:28.858Z,22.7462
2019-04-03T04:16:36.268Z,22.7302
2019-04-03T04:17:40.420Z,22.7302
2019-04-03T04:18:43.191Z,22.7302
2019-04-03T04:19:46.191Z,22.6875
2019-04-03T04:20:49.178Z,22.7302
2019-04-03T04:21:52.216Z,22.7035
2019-04-03T04:22:55.211Z,22.6741
2019-04-03T04:23:58.454Z,22.6741
2019-04-03T04:25:01.209Z,22.7302
2019-04-03T04:26:04.186Z,22.7462
2019-04-03T04:27:07.430Z,22.7302
2019-04-03T04:28:10.188Z,22.7462
2019-04-03T04:29:13.225Z,22.7169
2019-04-03T04:30:16.294Z,22.6608
2019-04-03T04:31:19.205Z,22.6608
2019-04-03T04:32:22.189Z,22.6474
2019-04-03T04:33:25.194Z,22.7462
2019-04-03T04:34:28.345Z,22.7302
2019-04-03T04:35:31.199Z,22.7169
2019-04-03T04:36:34.202Z,22.6608
2019-04-03T04:37:40.051Z,22.7035
2019-04-03T04:38:43.187Z,22.7302
2019-04-03T04:39:46.203Z,22.7035
2019-04-03T04:40:49.454Z,22.6875
2019-04-03T04:41:52.186Z,22.7035
2019-04-03T04:42:55.193Z,22.6608
2019-04-03T04:43:58.202Z,22.6181
2019-04-03T04:45:01.593Z,22.6047
2019-04-03T04:46:04.203Z,22.6474
2019-04-03T04:47:07.186Z,22.6474
2019-04-03T04:48:10.237Z,22.6181
2019-04-03T04:49:13.193Z,22.6608
2019-04-03T04:50:16.189Z,22.6608
2019-04-03T04:51:19.448Z,22.6314
2019-04-03T04:52:22.226Z,22.6181
2019-04-03T04:53:25.303Z,22.5887
2019-04-03T04:54:28.733Z,22.6474
2019-04-03T04:55:35.118Z,22.6181
2019-04-03T04:56:39.207Z,22.6474
2019-04-03T04:57:42.200Z,22.6474
2019-04-03T04:58:45.205Z,22.6314
2019-04-03T04:59:48.185Z,22.6474
2019-04-03T05:00:53.270Z,22.6474
2019-04-03T05:01:56.238Z,22.6181
2019-04-03T05:03:01.002Z,22.7035
2019-04-03T05:04:05.199Z,22.6608
2019-04-03T05:05:08.956Z,22.7035
2019-04-03T05:06:12.216Z,22.6608
2019-04-03T05:07:16.608Z,22.7302
2019-04-03T05:08:20.185Z,22.6741
2019-04-03T05:09:23.428Z,22.6741
2019-04-03T05:10:26.424Z,22.7035
2019-04-03T05:11:29.322Z,22.7169
2019-04-03T05:12:32.185Z,22.7462
2019-04-03T05:13:35.194Z,22.7729
2019-04-03T05:14:38.197Z,22.7596
2019-04-03T05:15:41.195Z,22.7863
2019-04-03T05:16:44.201Z,22.7863
2019-04-03T05:17:50.329Z,22.7863
2019-04-03T05:18:53.184Z,22.8023
2019-04-03T05:19:56.184Z,22.7863
2019-04-03T05:20:59.226Z,22.7863
2019-04-03T05:22:02.255Z,22.8157
2019-04-03T05:23:05.203Z,22.8290
2019-04-03T05:24:12.691Z,22.8290
2019-04-03T05:25:17.181Z,22.8290
2019-04-03T05:26:21.559Z,22.8157
2019-04-03T05:27:24.338Z,22.8157
2019-04-03T05:28:27.192Z,22.8450
2019-04-03T05:29:30.194Z,22.8290
2019-04-03T05:30:33.314Z,22.8584
2019-04-03T05:31:38.493Z,22.8023
2019-04-03T05:32:42.191Z,22.8450
2019-04-03T05:33:45.206Z,22.8851
2019-04-03T05:34:48.197Z,22.8717
2019-04-03T05:35:51.193Z,22.8157
2019-04-03T05:36:54.197Z,22.8584
2019-04-03T05:37:57.200Z,22.8584
2019-04-03T05:39:02.607Z,22.7863
2019-04-03T05:40:06.190Z,22.7863
2019-04-03T05:41:09.427Z,22.8851
2019-04-03T05:42:12.229Z,22.8450
2019-04-03T05:43:15.209Z,22.8290
2019-04-03T05:44:18.196Z,22.8450
2019-04-03T05:45:21.261Z,22.8717
2019-04-03T05:46:24.206Z,22.8584
2019-04-03T05:47:27.195Z,22.8717
2019-04-03T05:48:30.197Z,22.8290
2019-04-03T05:49:33.201Z,22.8290
2019-04-03T05:50:37.049Z,22.8157
2019-04-03T05:51:40.239Z,22.8851
2019-04-03T05:52:43.195Z,22.7596
2019-04-03T05:53:46.211Z,22.8584
2019-04-03T05:54:49.200Z,22.8157
2019-04-03T05:55:52.206Z,22.8290
2019-04-03T05:56:55.325Z,22.8290
2019-04-03T05:57:58.211Z,22.8450
2019-04-03T05:59:02.936Z,22.9145
2019-04-03T06:00:07.399Z,22.8157
2019-04-03T06:01:11.454Z,22.8584
2019-04-03T06:02:16.999Z,22.8851
2019-04-03T06:03:37.697Z,22.9011
2019-04-03T06:04:32.200Z,22.9706
2019-04-03T06:05:35.183Z,22.9145
2019-04-03T06:06:38.197Z,22.9438
2019-04-03T06:07:41.202Z,22.8717
2019-04-03T06:08:44.221Z,22.9145
2019-04-03T06:09:47.211Z,22.8851
2019-04-03T06:10:50.196Z,22.8584
2019-04-03T06:11:53.202Z,22.8851
2019-04-03T06:12:56.206Z,22.9438
2019-04-03T06:13:59.189Z,22.9572
2019-04-03T06:15:02.226Z,22.8717
2019-04-03T06:16:05.201Z,22.9011
2019-04-03T06:17:08.199Z,22.9572
2019-04-03T06:18:11.190Z,22.9572
2019-04-03T06:19:14.206Z,22.9706
2019-04-03T06:20:17.337Z,22.9572
2019-04-03T06:21:20.201Z,22.8717
2019-04-03T06:22:23.179Z,22.9438
2019-04-03T06:23:26.400Z,22.9706
2019-04-03T06:24:29.214Z,22.9438
2019-04-03T06:25:32.207Z,22.9145
2019-04-03T06:26:35.747Z,22.9706
2019-04-03T06:27:42.144Z,23.0266
2019-04-03T06:28:47.846Z,22.9706
2019-04-03T06:29:54.743Z,22.9706
2019-04-03T06:30:58.199Z,22.9438
2019-04-03T06:32:01.200Z,22.9999
2019-04-03T06:33:04.198Z,22.9438
2019-04-03T06:34:08.065Z,22.9572
2019-04-03T06:35:13.284Z,22.9011
2019-04-03T06:36:17.240Z,22.9011
2019-04-03T06:37:22.391Z,22.9572
2019-04-03T06:38:25.281Z,22.9278
2019-04-03T06:39:31.489Z,22.9145
2019-04-03T06:40:35.958Z,22.9011
2019-04-03T06:41:41.539Z,22.9572
2019-04-03T06:42:45.673Z,22.9572
2019-04-03T06:43:50.206Z,23.0133
2019-04-03T06:44:54.270Z,23.0266
2019-04-03T06:45:58.228Z,23.0560
2019-04-03T06:47:01.592Z,23.0720
2019-04-03T06:48:05.603Z,23.0854
2019-04-03T06:49:08.867Z,22.9839
2019-04-03T06:50:13.295Z,22.9999
2019-04-03T06:51:16.877Z,22.9438
2019-04-03T06:52:21.466Z,22.9145
2019-04-03T06:53:27.769Z,23.0133
2019-04-03T06:54:32.322Z,22.9999
2019-04-03T06:55:36.485Z,22.9999
2019-04-03T06:56:40.535Z,22.9706
2019-04-03T06:57:44.179Z,23.0133
2019-04-03T06:58:47.204Z,23.1147
2019-04-03T06:59:50.186Z,23.0133
2019-04-03T07:00:54.796Z,23.0400
2019-04-03T07:01:58.189Z,22.9839
2019-04-03T07:03:03.434Z,23.0266
2019-04-03T07:04:07.304Z,23.0133
2019-04-03T07:05:10.969Z,22.9438
2019-04-03T07:06:14.223Z,22.9839
2019-04-03T07:07:31.508Z,23.0400
2019-04-03T07:08:32.140Z,23.0854
2019-04-03T07:09:36.825Z,23.1414
2019-04-03T07:10:40.449Z,22.9999
2019-04-03T07:11:43.875Z,23.0854
2019-04-03T07:12:48.176Z,23.1575
2019-04-03T07:13:53.181Z,23.1281
2019-04-03T07:14:57.199Z,23.1708
2019-04-03T07:16:00.183Z,23.0400
2019-04-03T07:17:05.431Z,23.0400
2019-04-03T07:18:09.175Z,23.1014
2019-04-03T07:19:12.237Z,23.1281
2019-04-03T07:20:18.933Z,23.1575
2019-04-03T07:21:27.112Z,23.1281
2019-04-03T07:22:30.220Z,23.1575
2019-04-03T07:23:33.182Z,23.1708
2019-04-03T07:24:36.179Z,23.1147
2019-04-03T07:25:39.189Z,23.1414
2019-04-03T07:26:42.184Z,23.1414
2019-04-03T07:27:45.201Z,23.1147
2019-04-03T07:28:48.333Z,23.0133
2019-04-03T07:29:51.729Z,23.1575
2019-04-03T07:30:54.479Z,23.1708
2019-04-03T07:31:57.198Z,23.2136
2019-04-03T07:33:00.211Z,23.0400
2019-04-03T07:34:03.678Z,23.0854
2019-04-03T07:35:10.009Z,23.1575
2019-04-03T07:36:13.423Z,23.2002
2019-04-03T07:37:18.888Z,23.0854
2019-04-03T07:38:22.752Z,23.1708
2019-04-03T07:39:25.208Z,23.1414
2019-04-03T07:40:28.194Z,23.2269
2019-04-03T07:41:31.198Z,23.2563
2019-04-03T07:42:34.212Z,23.1414
2019-04-03T07:43:37.205Z,23.2269
2019-04-03T07:44:40.564Z,23.2269
2019-04-03T07:45:43.975Z,23.1575
2019-04-03T07:46:47.184Z,23.2002
2019-04-03T07:47:50.183Z,23.2002
2019-04-03T07:48:53.195Z,23.2830
2019-04-03T07:49:56.450Z,23.3124
2019-04-03T07:50:59.180Z,23.1708
2019-04-03T07:52:02.211Z,23.1414
2019-04-03T07:53:05.186Z,23.2563
2019-04-03T07:54:08.198Z,23.3684
2019-04-03T07:55:11.236Z,23.2403
2019-04-03T07:56:14.350Z,23.2830
2019-04-03T07:57:17.180Z,23.2696
2019-04-03T07:58:20.191Z,23.2990
2019-04-03T07:59:23.197Z,23.3684
2019-04-03T08:00:26.196Z,23.2830
2019-04-03T08:01:29.189Z,23.3978
2019-04-03T08:02:33.654Z,23.3124
2019-04-03T08:03:37.207Z,23.3257
2019-04-03T08:04:40.265Z,23.3391
2019-04-03T08:05:43.207Z,23.3391
2019-04-03T08:06:46.196Z,23.3818
2019-04-03T08:07:49.207Z,23.3391
2019-04-03T08:09:05.619Z,23.4245
2019-04-03T08:10:01.676Z,23.3818
2019-04-03T08:11:04.187Z,23.3391
2019-04-03T08:12:07.189Z,23.3124
2019-04-03T08:13:10.187Z,23.3978
2019-04-03T08:14:13.329Z,23.2696
2019-04-03T08:15:16.230Z,23.3551
2019-04-03T08:16:19.482Z,23.2990
2019-04-03T08:17:22.234Z,23.4245
2019-04-03T08:18:25.260Z,23.3684
2019-04-03T08:19:28.193Z,23.3684
2019-04-03T08:20:31.574Z,23.3124
2019-04-03T08:21:34.214Z,23.2830
2019-04-03T08:22:37.208Z,23.2696
2019-04-03T08:23:40.475Z,23.3978
2019-04-03T08:24:43.194Z,23.4112
2019-04-03T08:25:48.449Z,23.3551
2019-04-03T08:26:52.184Z,23.4245
2019-04-03T08:27:55.774Z,23.3551
2019-04-03T08:29:01.802Z,23.4379
2019-04-03T08:30:07.340Z,23.4539
2019-04-03T08:31:12.102Z,23.3818
2019-04-03T08:32:16.205Z,23.3684
2019-04-03T08:33:26.171Z,23.2990
2019-04-03T08:34:31.704Z,23.3684
2019-04-03T08:35:36.012Z,23.4112
2019-04-03T08:36:39.908Z,23.3818
2019-04-03T08:37:43.535Z,23.4539
2019-04-03T08:38:46.496Z,23.3391
2019-04-03T08:39:50.033Z,23.2696
2019-04-03T08:40:53.540Z,23.4112
2019-04-03T08:41:57.238Z,23.5821
2019-04-03T08:43:01.173Z,23.5100
2019-04-03T08:44:07.719Z,23.4245
2019-04-03T08:45:11.517Z,23.4939
2019-04-03T08:46:14.174Z,23.2990
2019-04-03T08:47:17.232Z,23.3978
2019-04-03T08:48:20.180Z,23.4112
2019-04-03T08:49:25.788Z,23.4379
2019-04-03T08:50:29.223Z,23.5367
2019-04-03T08:51:33.976Z,23.5954
2019-04-03T08:52:37.832Z,23.4379
2019-04-03T08:53:41.300Z,23.4539
2019-04-03T08:54:44.185Z,23.3684
2019-04-03T08:55:47.556Z,23.3551
2019-04-03T08:56:50.187Z,23.3818
2019-04-03T08:57:53.353Z,23.4806
2019-04-03T08:58:57.255Z,23.5233
2019-04-03T09:00:01.372Z,23.4672
2019-04-03T09:01:05.390Z,23.4939
2019-04-03T09:02:12.048Z,23.5367
2019-04-03T09:03:16.187Z,23.4806
2019-04-03T09:04:19.195Z,23.4379
2019-04-03T09:05:22.379Z,23.4806
2019-04-03T09:06:25.178Z,23.5100
2019-04-03T09:07:28.203Z,23.5100
2019-04-03T09:08:31.208Z,23.5821
2019-04-03T09:09:35.192Z,23.5687
2019-04-03T09:10:38.191Z,23.4539
2019-04-03T09:11:41.262Z,23.5687
2019-04-03T09:12:44.458Z,23.5527
2019-04-03T09:13:47.251Z,23.5954
2019-04-03T09:14:50.184Z,23.6114
2019-04-03T09:15:53.292Z,23.5367
2019-04-03T09:16:56.471Z,23.5233
2019-04-03T09:17:59.458Z,23.4672
2019-04-03T09:19:02.407Z,23.5100
2019-04-03T09:20:05.514Z,23.4672
2019-04-03T09:21:08.483Z,23.6248
2019-04-03T09:22:11.199Z,23.6114
2019-04-03T09:23:14.195Z,23.5527
2019-04-03T09:24:17.193Z,23.6381
2019-04-03T09:25:20.196Z,23.6114
2019-04-03T09:26:23.281Z,23.4806
2019-04-03T09:27:26.202Z,23.4806
2019-04-03T09:28:29.480Z,23.3684
2019-04-03T09:29:32.189Z,23.3257
2019-04-03T09:30:35.197Z,23.2002
2019-04-03T09:31:38.203Z,23.2696
2019-04-03T09:32:41.209Z,23.1147
2019-04-03T09:33:44.198Z,23.1147
2019-04-03T09:34:47.199Z,23.0560
2019-04-03T09:35:50.229Z,23.0854
2019-04-03T09:36:53.190Z,23.0266
2019-04-03T09:37:56.194Z,23.0720
2019-04-03T09:38:59.283Z,23.0400
2019-04-03T09:40:02.200Z,23.1014
2019-04-03T09:41:05.271Z,23.0266
2019-04-03T09:42:08.212Z,23.0266
2019-04-03T09:43:11.531Z,23.0400
2019-04-03T09:44:14.381Z,22.9999
2019-04-03T09:45:17.192Z,23.0266
2019-04-03T09:46:20.203Z,23.1708
2019-04-03T09:47:23.180Z,23.2990
2019-04-03T09:48:26.630Z,23.0854
2019-04-03T09:49:29.187Z,22.9839
2019-04-03T09:50:32.202Z,22.9572
2019-04-03T09:51:35.196Z,23.0266
2019-04-03T09:52:46.119Z,22.9706
2019-04-03T09:53:47.192Z,22.9438
2019-04-03T09:54:50.201Z,22.8851
2019-04-03T09:55:53.197Z,23.1575
2019-04-03T09:57:05.852Z,23.1281
2019-04-03T09:58:09.389Z,22.9999
2019-04-03T09:59:15.031Z,23.0720
2019-04-03T10:00:18.277Z,23.0720
2019-04-03T10:01:21.183Z,23.0720
2019-04-03T10:02:24.400Z,23.1014
2019-04-03T10:03:27.210Z,23.0400
2019-04-03T10:04:30.183Z,23.1281
2019-04-03T10:05:33.197Z,23.0560
2019-04-03T10:06:36.333Z,23.0560
2019-04-03T10:07:39.256Z,23.0400
2019-04-03T10:08:42.579Z,23.0720
2019-04-03T10:09:45.188Z,23.0560
2019-04-03T10:10:48.332Z,23.0720
2019-04-03T10:11:52.495Z,23.1281
2019-04-03T10:12:55.370Z,23.0720
2019-04-03T10:13:58.385Z,23.0133
2019-04-03T10:15:01.205Z,23.0854
2019-04-03T10:16:04.367Z,23.0133
2019-04-03T10:17:07.797Z,23.0400
2019-04-03T10:18:11.183Z,23.0720
2019-04-03T10:19:14.727Z,22.9572
2019-04-03T10:20:18.280Z,23.0266
2019-04-03T10:21:21.449Z,22.9839
2019-04-03T10:22:24.866Z,22.9145
2019-04-03T10:23:29.066Z,22.9706
2019-04-03T10:24:32.296Z,22.8851
2019-04-03T10:25:37.074Z,22.8450
2019-04-03T10:26:40.939Z,23.0400
2019-04-03T10:27:44.486Z,22.9011
2019-04-03T10:28:48.304Z,22.9011
2019-04-03T10:29:51.229Z,23.0560
2019-04-03T10:30:54.528Z,22.9438
2019-04-03T10:31:57.203Z,22.9145
2019-04-03T10:33:00.873Z,22.9438
2019-04-03T10:34:04.678Z,23.0720
2019-04-03T10:35:08.084Z,23.0400
2019-04-03T10:36:12.168Z,22.9706
2019-04-03T10:37:15.716Z,23.0400
2019-04-03T10:38:26.322Z,23.0400
2019-04-03T10:39:29.181Z,23.0266
2019-04-03T10:40:32.210Z,23.1575
2019-04-03T10:41:35.181Z,23.2269
2019-04-03T10:42:38.181Z,23.1414
2019-04-03T10:43:41.180Z,23.1014
2019-04-03T10:44:44.346Z,23.1147
2019-04-03T10:45:47.193Z,23.0854
2019-04-03T10:46:50.714Z,23.0854
2019-04-03T10:47:55.713Z,23.1014
2019-04-03T10:49:00.426Z,23.0560
2019-04-03T10:50:11.181Z,23.0720
2019-04-03T10:51:14.230Z,23.0400
2019-04-03T10:52:17.204Z,23.0720
2019-04-03T10:53:20.770Z,23.0720
2019-04-03T10:54:25.079Z,23.0560
2019-04-03T10:55:29.369Z,23.0854
2019-04-03T10:56:32.721Z,23.0400
2019-04-03T10:57:35.491Z,23.0854
2019-04-03T10:58:41.860Z,23.0400
2019-04-03T10:59:46.190Z,22.8717
2019-04-03T11:00:49.395Z,23.0400
2019-04-03T11:01:52.372Z,23.0266
2019-04-03T11:02:55.195Z,23.0720
2019-04-03T11:03:58.198Z,23.1708
2019-04-03T11:05:01.201Z,23.1147
2019-04-03T11:06:04.198Z,23.0266
2019-04-03T11:07:07.193Z,23.0560
2019-04-03T11:08:10.470Z,23.0400
2019-04-03T11:09:13.373Z,22.9999
2019-04-03T11:10:16.201Z,23.0133
2019-04-03T11:11:19.235Z,22.9706
2019-04-03T11:12:22.358Z,22.9572
2019-04-03T11:13:25.217Z,22.9278
2019-04-03T11:14:28.220Z,22.9572
2019-04-03T11:15:31.390Z,23.0720
2019-04-03T11:16:34.383Z,23.0266
2019-04-03T11:17:37.375Z,23.0400
2019-04-03T11:18:40.417Z,22.9999
2019-04-03T11:19:44.724Z,22.9999
2019-04-03T11:20:47.191Z,22.9572
2019-04-03T11:21:50.195Z,22.9011
2019-04-03T11:23:04.048Z,22.9839
2019-04-03T11:24:02.664Z,22.8717
2019-04-03T11:25:05.370Z,22.9438
2019-04-03T11:26:08.425Z,23.0266
2019-04-03T11:27:11.313Z,23.1575
2019-04-03T11:28:14.207Z,23.0720
2019-04-03T11:29:17.202Z,22.9839
2019-04-03T11:30:24.115Z,23.0720
2019-04-03T11:31:28.973Z,23.0720
2019-04-03T11:32:32.199Z,23.0560
2019-04-03T11:33:35.403Z,23.0720
2019-04-03T11:34:38.186Z,23.0266
2019-04-03T11:35:41.182Z,23.0133
2019-04-03T11:36:44.201Z,22.9999
2019-04-03T11:37:47.259Z,23.1014
2019-04-03T11:38:50.205Z,23.1414
2019-04-03T11:40:02.428Z,23.1842
2019-04-03T11:41:11.675Z,23.2696
2019-04-03T11:42:22.472Z,23.0400
2019-04-03T11:43:20.206Z,23.2269
2019-04-03T11:44:23.299Z,23.1414
2019-04-03T11:45:26.203Z,23.1414
2019-04-03T11:46:29.186Z,23.2696
2019-04-03T11:47:32.247Z,23.0720
2019-04-03T11:48:35.198Z,23.0720
2019-04-03T11:49:38.212Z,23.1281
2019-04-03T11:50:41.218Z,23.1414
2019-04-03T11:51:44.196Z,23.0133
2019-04-03T11:52:47.188Z,23.0400
2019-04-03T11:53:50.248Z,23.0560
2019-04-03T11:54:53.489Z,22.9572
2019-04-03T11:55:56.376Z,23.1575
2019-04-03T11:56:59.200Z,23.0560
2019-04-03T11:58:02.575Z,23.0133
2019-04-03T11:59:05.262Z,22.9839
2019-04-03T12:00:08.202Z,23.0400
2019-04-03T12:01:11.191Z,23.1575
2019-04-03T12:02:14.194Z,23.0854
2019-04-03T12:03:17.559Z,22.8023
2019-04-03T12:04:20.231Z,22.8717
2019-04-03T12:05:23.230Z,22.9839
2019-04-03T12:06:26.454Z,23.0560
2019-04-03T12:07:29.402Z,23.0266
2019-04-03T12:08:32.195Z,22.9839
2019-04-03T12:09:35.187Z,22.9278
2019-04-03T12:10:38.195Z,23.1708
2019-04-03T12:11:41.228Z,23.1414
2019-04-03T12:12:44.182Z,23.1147
2019-04-03T12:13:47.191Z,23.0854
2019-04-03T12:14:50.291Z,23.0720
2019-04-03T12:15:54.527Z,23.0133
2019-04-03T12:16:59.181Z,22.9999
2019-04-03T12:18:02.894Z,23.0560
2019-04-03T12:19:06.456Z,22.9999
2019-04-03T12:20:09.564Z,23.1842
2019-04-03T12:21:14.188Z,23.1708
2019-04-03T12:22:18.180Z,23.1842
2019-04-03T12:23:21.392Z,23.0720
2019-04-03T12:24:24.192Z,23.2136
2019-04-03T12:25:27.358Z,23.1414
2019-04-03T12:26:30.195Z,23.1014
2019-04-03T12:27:35.516Z,23.0720
2019-04-03T12:28:39.515Z,22.9145
2019-04-03T12:29:42.199Z,22.9999
2019-04-03T12:30:45.195Z,22.9438
2019-04-03T12:31:48.186Z,22.9572
2019-04-03T12:32:51.329Z,22.9011
2019-04-03T12:33:58.980Z,22.9145
2019-04-03T12:35:03.388Z,22.8851
2019-04-03T12:36:07.251Z,22.9438
2019-04-03T12:37:10.479Z,22.8851
2019-04-03T12:38:13.545Z,22.9011
2019-04-03T12:39:16.622Z,22.8717
2019-04-03T12:40:19.444Z,22.9011
2019-04-03T12:41:22.514Z,22.9011
2019-04-03T12:42:25.510Z,22.9278
2019-04-03T12:43:28.181Z,22.8717
2019-04-03T12:44:31.185Z,22.9278
2019-04-03T12:45:34.196Z,23.0400
2019-04-03T12:46:37.845Z,22.8851
2019-04-03T12:47:44.477Z,23.0720
2019-04-03T12:48:50.199Z,23.0400
2019-04-03T12:49:53.993Z,23.1414
2019-04-03T12:50:59.319Z,23.1147
2019-04-03T12:52:04.544Z,23.1414